ESPAEFOU

Guest
Details From ESPA - Lulea Kallax
To EFOU - Oulu
Flight Number -
Tags generated
Created
Modified
Stats Distance 89 nm / 166 km
Max Altitude 0 ft / 0 m
Waypoints 3
Social Downloads 0
Likes 0
Share

Download

Looking for another format? Having issues loading an existing format? Contact us
Advertisement - Login to hide

Notes

Basic altitude profile: - Ascent Rate: 2500ft/min - Ascent Speed: 250kts - Cruise Altitude: 35000ft - Cruise Speed: 420kts - Descent Rate: 1500ft/min - Descent Speed: 250kts Options: - Use NATs: yes - Use PACOTS: yes - Use low airways: yes - Use high airways: yes

Route

ESPA OUK EFOU

ID Type Via Altitude (ft/m) Position (lat/lon) Dist (leg/tot) Name
O ESPA APT - 0 / 0 65.54376 / 22.12198 - / 0 nm Lulea Kallax
OUK VOR - 0 / 0 64.93155 / 25.35928 89 / 89 nm OULU VOR-DME
O EFOU APT - 0 / 0 64.93006 / 25.35456 0 / 89 nm Oulu

Altitude Profile

Advertisement - Login to hide

ESPA

Details ICAO ESPA (LLA)
Name Lulea Kallax
Region Sweden
Timezone Europe/Stockholm (UTC+2.0)
Stats Elevation 64 ft / 20 m (AMSL)
Location 65.543800° 22.122000°
Runways 1
Magnetic Variation 9.975° E

METAR

ESPA 111120Z 20007KT 9999 SCT018 BKN220 11/08 Q1010

Decode

TAF

Not found

Departure Runways

ID Width Length Bearing (true/mag) Surface Threshold Overrun Markings Lighting
14 148 ft / 45 m 10,957 ft / 3,340 m 137.32° / 127.34° ASPHALT 0 ft / 0 m 200 ft / 61 m PREC-APP EDGE THRESHOLD CALVERT
32 148 ft / 45 m 10,957 ft / 3,340 m 317.36° / 307.39° ASPHALT 0 ft / 0 m 200 ft / 61 m PREC-APP EDGE THRESHOLD CALVERT

EFOU

Details ICAO EFOU (OUL)
Name Oulu Airport
Region Finland
Timezone Europe/Helsinki (UTC+3.0)
Stats Elevation 46 ft / 14 m (AMSL)
Location 64.930100° 25.354600°
Runways 1
Magnetic Variation 11.283° E

METAR

EFOU 111120Z AUTO 28008KT 9999 OVC026 10/07 Q1013

Decode

TAF

TAF AMD TAF AMD EFOU 111052Z 1110/1209 28008KT 9999 BKN025 TEMPO 1122/1206 1500 BR BKN001

Decode

Destination Runways

ID Width Length Bearing (true/mag) Surface Threshold Overrun Markings Lighting
12 197 ft / 60 m 8,214 ft / 2,504 m 121.02° / 109.73° ASPHALT 0 ft / 0 m 0 ft / 0 m PREC-APP CENTERLINE EDGE THRESHOLD ALSF-II TDZ
30 197 ft / 60 m 8,214 ft / 2,504 m 301.06° / 289.77° ASPHALT 0 ft / 0 m 0 ft / 0 m PREC-APP CENTERLINE EDGE THRESHOLD CALVERT

Approach Navaids

Runway Type Ident Frequency Range Bearing (true/mag) Slope Elevation
12 OM OM - - 121.03° / 109.75 ° - 47 ft / 14 m (AMSL)
12 LOC-ILS OU 109.50 MHz 18 nm / 33 km 121.04° / 109.76 ° - 45 ft / 14 m (AMSL)
12 MM MM - - 121.03° / 109.75 ° - 47 ft / 14 m (AMSL)
12 DME OU 109.50 MHz 18 nm / 33 km - - 100 ft / 30 m (AMSL)
12 GS OU 109.50 MHz 10 nm / 19 km 121.04° / 109.76 ° 3.00° 45 ft / 14 m (AMSL)

Popular Alternatives